createdAt,value
2019-05-11T00:00:37.788Z,7.40
2019-05-11T00:01:37.783Z,6.30
2019-05-11T00:02:37.779Z,8.20
2019-05-11T00:03:37.777Z,5.70
2019-05-11T00:04:37.771Z,5.70
2019-05-11T00:05:37.765Z,5.90
2019-05-11T00:06:37.763Z,7.60
2019-05-11T00:07:37.756Z,6.20
2019-05-11T00:08:37.756Z,5.90
2019-05-11T00:09:37.747Z,6.50
2019-05-11T00:10:37.742Z,7.90
2019-05-11T00:11:37.740Z,6.60
2019-05-11T00:12:37.744Z,8.80
2019-05-11T00:13:37.730Z,7.10
2019-05-11T00:14:37.725Z,7.80
2019-05-11T00:15:37.725Z,5.70
2019-05-11T00:16:37.716Z,10.00
2019-05-11T00:17:37.711Z,6.00
2019-05-11T00:18:37.707Z,7.00
2019-05-11T00:19:37.702Z,6.00
2019-05-11T00:20:37.698Z,7.50
2019-05-11T00:21:37.694Z,5.90
2019-05-11T00:22:37.690Z,8.20
2019-05-11T00:23:37.690Z,7.20
2019-05-11T00:24:37.682Z,6.70
2019-05-11T00:25:37.675Z,9.60
2019-05-11T00:26:37.671Z,6.20
2019-05-11T00:27:37.665Z,4.20
2019-05-11T00:28:37.663Z,7.20
2019-05-11T00:29:37.657Z,6.60
2019-05-11T00:30:37.651Z,6.90
2019-05-11T00:31:37.648Z,5.50
2019-05-11T00:32:37.643Z,5.70
2019-05-11T00:33:37.639Z,5.60
2019-05-11T00:34:37.633Z,12.50
2019-05-11T00:35:37.631Z,7.70
2019-05-11T00:36:37.628Z,7.30
2019-05-11T00:37:37.620Z,8.00
2019-05-11T00:38:37.617Z,5.50
2019-05-11T00:39:37.612Z,6.80
2019-05-11T00:40:37.607Z,5.80
2019-05-11T00:41:37.604Z,8.00
2019-05-11T00:42:37.598Z,7.50
2019-05-11T00:43:37.592Z,8.30
2019-05-11T00:44:37.589Z,5.50
2019-05-11T00:45:37.584Z,5.90
2019-05-11T00:46:37.579Z,6.60
2019-05-11T00:47:37.573Z,5.30
2019-05-11T00:48:37.571Z,8.60
2019-05-11T00:49:37.566Z,6.10
2019-05-11T00:50:39.811Z,9.40
2019-05-11T00:51:37.556Z,6.50
2019-05-11T00:52:37.560Z,8.10
2019-05-11T00:53:37.547Z,6.00
2019-05-11T00:54:37.542Z,8.40
2019-05-11T00:55:37.537Z,7.30
2019-05-11T00:56:37.534Z,7.20
2019-05-11T00:57:37.528Z,9.40
2019-05-11T00:58:37.525Z,7.40
2019-05-11T00:59:37.519Z,7.60
2019-05-11T01:00:37.515Z,6.30
2019-05-11T01:01:37.509Z,8.70
2019-05-11T01:02:37.505Z,7.30
2019-05-11T01:03:37.502Z,7.80
2019-05-11T01:04:37.515Z,7.30
2019-05-11T01:05:37.495Z,7.00
2019-05-11T01:06:37.508Z,10.50
2019-05-11T01:07:37.484Z,7.10
2019-05-11T01:08:37.478Z,8.20
2019-05-11T01:09:37.490Z,12.10
2019-05-11T01:10:42.135Z,10.60
2019-05-11T01:11:37.464Z,8.20
2019-05-11T01:12:37.473Z,9.90
2019-05-11T01:13:37.453Z,11.50
2019-05-11T01:14:37.449Z,11.70
2019-05-11T01:15:37.448Z,8.90
2019-05-11T01:16:37.443Z,11.90
2019-05-11T01:17:37.436Z,9.20
2019-05-11T01:18:37.431Z,7.70
2019-05-11T01:19:37.429Z,8.70
2019-05-11T01:20:37.430Z,12.10
2019-05-11T01:21:37.417Z,7.50
2019-05-11T01:22:37.476Z,14.50
2019-05-11T01:23:37.408Z,11.60
2019-05-11T01:24:37.403Z,10.60
2019-05-11T01:25:37.398Z,10.40
2019-05-11T01:26:37.449Z,9.50
2019-05-11T01:27:37.389Z,8.70
2019-05-11T01:28:37.384Z,14.80
2019-05-11T01:29:37.378Z,11.40
2019-05-11T01:30:38.876Z,10.00
2019-05-11T01:31:37.371Z,9.60
2019-05-11T01:32:37.371Z,14.80
2019-05-11T01:33:37.360Z,8.60
2019-05-11T01:34:37.356Z,11.90
2019-05-11T01:35:37.353Z,12.90
2019-05-11T01:36:37.346Z,9.50
2019-05-11T01:37:37.341Z,13.80
2019-05-11T01:38:37.339Z,9.70
2019-05-11T01:40:56.356Z,11.30
2019-05-11T01:41:41.035Z,8.00
2019-05-11T01:42:37.319Z,8.50
2019-05-11T01:43:37.315Z,9.30
2019-05-11T01:44:37.309Z,9.40
2019-05-11T01:45:37.303Z,10.50
2019-05-11T01:46:37.299Z,11.40
2019-05-11T01:47:37.298Z,13.10
2019-05-11T01:48:37.294Z,14.90
2019-05-11T01:49:37.288Z,19.40
2019-05-11T01:50:37.288Z,14.60
2019-05-11T01:51:37.274Z,14.80
2019-05-11T01:52:37.272Z,19.70
2019-05-11T01:53:37.265Z,23.00
2019-05-11T01:54:37.261Z,24.70
2019-05-11T01:55:37.255Z,24.50
2019-05-11T01:56:37.255Z,20.30
2019-05-11T01:57:37.248Z,25.20
2019-05-11T01:58:37.244Z,25.80
2019-05-11T01:59:37.238Z,24.60
2019-05-11T02:00:37.235Z,24.50
2019-05-11T02:01:37.227Z,24.80
2019-05-11T02:02:37.224Z,23.20
2019-05-11T02:03:37.219Z,25.70
2019-05-11T02:04:37.224Z,24.50
2019-05-11T02:05:37.209Z,29.50
2019-05-11T02:06:37.203Z,24.80
2019-05-11T02:07:37.214Z,28.00
2019-05-11T02:08:37.194Z,25.10
2019-05-11T02:09:37.190Z,30.20
2019-05-11T02:10:37.184Z,24.40
2019-05-11T02:11:37.180Z,25.80
2019-05-11T02:12:37.176Z,24.20
2019-05-11T02:13:37.171Z,25.40
2019-05-11T02:14:37.165Z,32.60
2019-05-11T02:15:37.163Z,28.80
2019-05-11T02:16:37.157Z,32.30
2019-05-11T02:19:05.557Z,29.20
2019-05-11T02:20:05.954Z,30.50
2019-05-11T02:22:47.214Z,27.70
2019-05-11T02:23:47.214Z,24.50
2019-05-11T02:24:47.202Z,26.10
2019-05-11T02:25:47.198Z,27.20
2019-05-11T02:26:47.193Z,27.40
2019-05-11T02:27:47.189Z,30.90
2019-05-11T02:28:47.185Z,30.00
2019-05-11T02:29:47.177Z,28.70
2019-05-11T02:30:47.175Z,27.90
2019-05-11T02:31:47.169Z,28.00
2019-05-11T02:33:59.428Z,31.30
2019-05-11T02:34:59.888Z,24.30
2019-05-11T02:39:07.134Z,21.80
2019-05-11T02:40:07.129Z,22.40
2019-05-11T02:41:10.115Z,21.40
2019-05-11T02:44:03.812Z,21.30
2019-05-11T02:45:04.576Z,27.40
2019-05-11T02:46:04.820Z,24.10
2019-05-11T02:47:06.625Z,26.30
2019-05-11T02:48:03.787Z,21.70
2019-05-11T02:49:06.578Z,23.20
2019-05-11T02:50:03.824Z,17.20
2019-05-11T02:51:03.773Z,19.40
2019-05-11T02:52:03.767Z,16.60
2019-05-11T02:53:03.773Z,18.40
2019-05-11T02:54:03.765Z,18.40
2019-05-11T02:55:03.751Z,16.10
2019-05-11T02:56:03.769Z,14.90
2019-05-11T02:57:03.746Z,16.20
2019-05-11T02:58:03.735Z,16.40
2019-05-11T02:59:03.732Z,11.20
2019-05-11T03:00:03.723Z,17.50
2019-05-11T03:01:03.719Z,10.20
2019-05-11T03:02:03.714Z,9.80
2019-05-11T03:03:03.710Z,9.30
2019-05-11T03:04:03.708Z,14.20
2019-05-11T03:05:03.698Z,9.30
2019-05-11T03:06:03.697Z,13.60
2019-05-11T03:07:03.688Z,11.20
2019-05-11T03:08:03.692Z,13.30
2019-05-11T03:09:03.696Z,11.50
2019-05-11T03:10:03.670Z,10.40
2019-05-11T03:11:03.669Z,11.60
2019-05-11T03:12:03.666Z,7.90
2019-05-11T03:13:03.655Z,15.00
2019-05-11T03:14:03.802Z,12.20
2019-05-11T03:15:03.647Z,10.10
2019-05-11T03:16:03.640Z,9.90
2019-05-11T03:17:03.636Z,9.10
2019-05-11T03:18:03.631Z,12.20
2019-05-11T03:19:03.627Z,12.60
2019-05-11T03:20:03.618Z,9.20
2019-05-11T03:21:03.615Z,11.10
2019-05-11T03:22:03.609Z,12.60
2019-05-11T03:23:03.613Z,11.50
2019-05-11T03:24:03.637Z,14.40
2019-05-11T03:25:03.600Z,9.50
2019-05-11T03:26:03.699Z,10.20
2019-05-11T03:27:03.604Z,10.90
2019-05-11T03:28:03.579Z,13.60
2019-05-11T03:29:03.575Z,10.90
2019-05-11T03:30:03.574Z,11.90
2019-05-11T03:31:03.585Z,14.70
2019-05-11T03:32:03.558Z,9.80
2019-05-11T03:33:03.562Z,10.80
2019-05-11T03:34:03.550Z,10.10
2019-05-11T03:35:03.553Z,10.00
2019-05-11T03:36:03.536Z,9.30
2019-05-11T03:37:03.532Z,11.30
2019-05-11T03:38:03.528Z,11.90
2019-05-11T03:39:03.522Z,10.90
2019-05-11T03:40:03.519Z,10.20
2019-05-11T03:41:03.510Z,9.50
2019-05-11T03:42:13.895Z,11.70
2019-05-11T03:43:03.504Z,10.10
2019-05-11T03:44:03.496Z,11.20
2019-05-11T03:45:03.490Z,10.20
2019-05-11T03:46:03.489Z,10.10
2019-05-11T03:47:03.495Z,12.20
2019-05-11T03:48:03.481Z,9.00
2019-05-11T03:49:03.476Z,13.20
2019-05-11T03:50:03.465Z,9.60
2019-05-11T03:51:03.462Z,15.20
2019-05-11T03:52:03.459Z,10.90
2019-05-11T03:53:03.457Z,12.50
2019-05-11T03:54:03.445Z,10.70
2019-05-11T03:55:03.448Z,13.10
2019-05-11T03:56:03.445Z,9.60
2019-05-11T03:57:03.432Z,12.50
2019-05-11T03:58:03.430Z,18.00
2019-05-11T03:59:03.420Z,13.60
2019-05-11T04:00:03.413Z,13.50
2019-05-11T04:01:03.408Z,11.20
2019-05-11T04:02:03.410Z,16.50
2019-05-11T04:03:03.404Z,11.80
2019-05-11T04:04:03.397Z,11.20
2019-05-11T04:05:03.388Z,10.70
2019-05-11T04:06:03.403Z,13.90
2019-05-11T04:07:03.380Z,12.50
2019-05-11T04:08:03.373Z,12.10
2019-05-11T04:09:03.368Z,14.70
2019-05-11T04:10:03.365Z,16.90
2019-05-11T04:11:03.359Z,10.10
2019-05-11T04:12:03.357Z,10.10
2019-05-11T04:13:03.348Z,11.20
2019-05-11T04:14:03.354Z,8.80
2019-05-11T04:15:03.343Z,12.30
2019-05-11T04:16:03.338Z,12.50
2019-05-11T04:17:03.329Z,10.80
2019-05-11T04:18:03.328Z,11.50
2019-05-11T04:19:03.317Z,13.30
2019-05-11T04:20:03.317Z,8.20
2019-05-11T04:21:03.307Z,9.80
2019-05-11T04:22:03.306Z,10.30
2019-05-11T04:23:03.295Z,13.00
2019-05-11T04:24:03.291Z,11.70
2019-05-11T04:25:03.285Z,9.30
2019-05-11T04:26:03.285Z,11.10
2019-05-11T04:27:03.275Z,7.30
2019-05-11T04:28:03.276Z,13.20
2019-05-11T04:29:03.317Z,12.40
2019-05-11T04:30:03.313Z,10.20
2019-05-11T04:31:03.341Z,9.30
2019-05-11T04:32:03.250Z,7.50
2019-05-11T04:33:03.267Z,7.80
2019-05-11T04:34:03.240Z,8.70
2019-05-11T04:35:03.251Z,10.50
2019-05-11T04:36:03.229Z,8.00
2019-05-11T04:37:03.224Z,7.10
2019-05-11T04:38:03.218Z,11.00
2019-05-11T04:39:03.215Z,6.80
2019-05-11T04:40:03.213Z,10.20
2019-05-11T04:41:03.343Z,6.70
2019-05-11T04:42:03.201Z,8.40
2019-05-11T04:43:03.196Z,5.70
2019-05-11T04:44:03.191Z,5.20
2019-05-11T04:45:03.183Z,9.60
2019-05-11T04:46:03.180Z,7.40
2019-05-11T04:47:03.178Z,11.90
2019-05-11T04:48:03.167Z,12.30
2019-05-11T04:49:03.163Z,7.40
2019-05-11T04:50:03.161Z,8.90
2019-05-11T04:51:03.159Z,11.00
2019-05-11T04:52:03.147Z,8.40
2019-05-11T04:53:03.144Z,8.10
2019-05-11T04:54:03.145Z,7.30
2019-05-11T04:55:03.133Z,6.10
2019-05-11T04:56:03.127Z,7.00
2019-05-11T04:57:03.121Z,12.30
2019-05-11T04:58:03.117Z,10.10
2019-05-11T04:59:03.112Z,11.60
2019-05-11T05:00:03.157Z,12.90
2019-05-11T05:01:03.101Z,12.30
2019-05-11T05:02:03.098Z,8.30
2019-05-11T05:03:03.090Z,8.00
2019-05-11T05:04:13.244Z,8.20
2019-05-11T05:05:03.081Z,7.10
2019-05-11T05:06:20.882Z,6.60
2019-05-11T05:07:08.566Z,10.80
2019-05-11T05:08:09.724Z,5.30
2019-05-11T05:09:03.566Z,12.00
2019-05-11T05:10:03.056Z,7.80
2019-05-11T05:11:03.050Z,7.10
2019-05-11T05:12:03.045Z,7.20
2019-05-11T05:13:10.659Z,6.00
2019-05-11T05:14:08.124Z,7.00
2019-05-11T05:15:03.029Z,9.40
2019-05-11T05:16:03.024Z,7.30
2019-05-11T05:17:03.019Z,6.20
2019-05-11T05:18:03.064Z,8.50
2019-05-11T05:19:03.009Z,9.50
2019-05-11T05:20:03.009Z,10.50
2019-05-11T05:21:02.999Z,9.10
2019-05-11T05:22:02.996Z,8.50
2019-05-11T05:23:02.988Z,6.70
2019-05-11T05:24:02.988Z,7.00
2019-05-11T05:25:02.979Z,8.50
2019-05-11T05:26:02.976Z,8.80
2019-05-11T05:27:02.976Z,8.60
2019-05-11T05:28:02.962Z,8.30
2019-05-11T05:29:02.961Z,12.30
2019-05-11T05:30:03.021Z,6.30
2019-05-11T05:31:02.951Z,5.10
2019-05-11T05:32:02.953Z,9.40
2019-05-11T05:33:02.939Z,7.60
2019-05-11T05:34:02.935Z,5.30
2019-05-11T05:35:02.931Z,6.20
2019-05-11T05:36:02.923Z,8.60
2019-05-11T05:37:02.924Z,6.80
2019-05-11T05:38:02.915Z,5.40
2019-05-11T05:39:02.909Z,5.00
2019-05-11T05:40:02.904Z,9.60
2019-05-11T05:41:02.906Z,4.70
2019-05-11T05:42:02.894Z,6.20
2019-05-11T05:43:02.891Z,8.50
2019-05-11T05:44:02.888Z,5.30
2019-05-11T05:45:02.881Z,9.80
2019-05-11T05:46:02.879Z,7.60
2019-05-11T05:47:02.873Z,9.70
2019-05-11T05:48:02.877Z,5.10
2019-05-11T05:49:02.865Z,6.60
2019-05-11T05:50:02.861Z,7.10
2019-05-11T05:51:02.854Z,6.60
2019-05-11T05:52:02.853Z,6.40
2019-05-11T05:53:02.845Z,5.20
2019-05-11T05:54:02.838Z,5.60
2019-05-11T05:55:02.835Z,11.80
2019-05-11T05:56:02.829Z,10.40
2019-05-11T05:57:02.825Z,7.90
2019-05-11T05:58:02.824Z,5.10
2019-05-11T05:59:02.819Z,7.30
2019-05-11T06:00:02.813Z,7.50
2019-05-11T06:01:02.807Z,10.00
2019-05-11T06:02:02.805Z,8.40
2019-05-11T06:03:02.805Z,8.10
2019-05-11T06:04:02.793Z,6.20
2019-05-11T06:05:02.790Z,6.30
2019-05-11T06:06:02.785Z,9.90
2019-05-11T06:07:02.780Z,5.00
2019-05-11T06:08:02.778Z,5.30
2019-05-11T06:09:02.772Z,5.40
2019-05-11T06:10:02.770Z,7.00
2019-05-11T06:11:02.765Z,10.90
2019-05-11T06:12:02.761Z,6.50
2019-05-11T06:13:02.754Z,6.00
2019-05-11T06:14:02.751Z,7.20
2019-05-11T06:15:02.745Z,10.00
2019-05-11T06:16:02.740Z,7.90
2019-05-11T06:17:02.735Z,5.70
2019-05-11T06:18:02.735Z,8.60
2019-05-11T06:19:02.728Z,6.10
2019-05-11T06:20:03.601Z,16.20
2019-05-11T06:21:02.718Z,8.10
2019-05-11T06:22:02.728Z,4.70
2019-05-11T06:23:02.711Z,9.00
2019-05-11T06:24:06.812Z,6.30
2019-05-11T06:25:02.703Z,6.20
2019-05-11T06:26:02.697Z,7.40
2019-05-11T06:27:02.693Z,9.60
2019-05-11T06:28:02.686Z,6.90
2019-05-11T06:29:02.682Z,8.10
2019-05-11T06:30:02.679Z,5.80
2019-05-11T06:31:02.685Z,5.10
2019-05-11T06:32:02.669Z,8.90
2019-05-11T06:33:02.666Z,10.70
2019-05-11T06:34:02.666Z,8.80
2019-05-11T06:35:02.830Z,10.10
2019-05-11T06:36:02.651Z,5.30
2019-05-11T06:37:02.647Z,7.10
2019-05-11T06:38:02.644Z,8.40
2019-05-11T06:39:02.640Z,6.60
2019-05-11T06:40:02.633Z,5.10
2019-05-11T06:41:02.633Z,5.80
2019-05-11T06:42:02.630Z,4.40
2019-05-11T06:43:02.622Z,7.20
2019-05-11T06:44:02.617Z,6.60
2019-05-11T06:45:02.615Z,9.50
2019-05-11T06:46:02.619Z,8.90
2019-05-11T06:47:02.608Z,6.00
2019-05-11T06:48:02.603Z,5.20
2019-05-11T06:49:02.598Z,6.50
2019-05-11T06:50:02.595Z,8.80
2019-05-11T06:51:02.594Z,9.50
2019-05-11T06:52:02.587Z,6.40
2019-05-11T06:53:02.583Z,4.50
2019-05-11T06:54:02.578Z,5.50
2019-05-11T06:55:02.575Z,7.80
2019-05-11T06:56:02.571Z,8.80
2019-05-11T06:57:02.570Z,6.10
2019-05-11T06:58:02.565Z,5.50
2019-05-11T06:59:02.559Z,10.40
2019-05-11T07:00:02.554Z,6.00
2019-05-11T07:01:02.552Z,9.40
2019-05-11T07:02:02.548Z,5.50
2019-05-11T07:03:02.548Z,8.20
2019-05-11T07:04:02.538Z,6.20
2019-05-11T07:05:02.538Z,7.30
2019-05-11T07:06:02.531Z,8.60
2019-05-11T07:07:02.528Z,7.30
2019-05-11T07:08:02.524Z,4.50
2019-05-11T07:09:02.519Z,5.60
2019-05-11T07:10:02.517Z,6.80
2019-05-11T07:11:02.513Z,7.40
2019-05-11T07:12:02.581Z,10.70
2019-05-11T07:13:02.505Z,4.50
2019-05-11T07:14:19.352Z,4.40
2019-05-11T07:15:02.503Z,8.30
2019-05-11T07:16:02.559Z,6.50
2019-05-11T07:17:02.492Z,9.40
2019-05-11T07:18:02.491Z,4.00
2019-05-11T07:19:02.487Z,5.80
2019-05-11T07:20:02.480Z,7.30
2019-05-11T07:21:02.477Z,5.80
2019-05-11T07:22:02.476Z,5.80
2019-05-11T07:23:02.473Z,7.30
2019-05-11T07:24:02.469Z,8.00
2019-05-11T07:25:02.464Z,6.40
2019-05-11T07:26:02.468Z,5.40
2019-05-11T07:27:02.459Z,10.50
2019-05-11T07:28:02.486Z,8.10
2019-05-11T07:29:02.455Z,10.60
2019-05-11T07:30:02.450Z,7.10
2019-05-11T07:31:02.447Z,5.30
2019-05-11T07:32:09.898Z,12.90
2019-05-11T07:33:02.440Z,6.60
2019-05-11T07:34:02.438Z,8.30
2019-05-11T07:35:02.437Z,7.80
2019-05-11T07:36:02.431Z,6.50
2019-05-11T07:37:02.428Z,4.90
2019-05-11T07:38:02.429Z,6.40
2019-05-11T07:39:02.425Z,5.10
2019-05-11T07:40:02.426Z,8.40
2019-05-11T07:41:02.424Z,5.20
2019-05-11T07:42:02.417Z,7.40
2019-05-11T07:43:05.961Z,7.50
2019-05-11T07:44:02.413Z,5.60
2019-05-11T07:45:02.411Z,5.50
2019-05-11T07:46:02.409Z,11.10
2019-05-11T07:47:02.407Z,8.00
2019-05-11T07:48:02.404Z,5.60
2019-05-11T07:49:02.403Z,7.70
2019-05-11T07:50:02.400Z,7.60
2019-05-11T07:51:02.398Z,7.60
2019-05-11T07:52:02.396Z,4.40
2019-05-11T07:53:02.397Z,4.00
2019-05-11T07:54:02.393Z,8.90
2019-05-11T07:55:02.445Z,10.40
2019-05-11T07:56:02.393Z,11.10
2019-05-11T07:57:02.391Z,6.90
2019-05-11T07:58:02.390Z,5.50
2019-05-11T07:59:02.389Z,6.10
2019-05-11T08:00:02.391Z,8.20
2019-05-11T08:01:02.388Z,8.20
2019-05-11T08:02:02.386Z,7.00
2019-05-11T08:03:02.388Z,7.90
2019-05-11T08:04:02.386Z,5.70
2019-05-11T08:05:02.391Z,7.00
2019-05-11T08:06:02.919Z,6.60
2019-05-11T08:07:02.388Z,3.80
2019-05-11T08:08:02.387Z,5.70
2019-05-11T08:09:02.388Z,6.10
2019-05-11T08:10:02.390Z,6.40
2019-05-11T08:11:02.392Z,5.30
2019-05-11T08:12:02.392Z,6.80
2019-05-11T08:13:02.397Z,6.50
2019-05-11T08:14:02.405Z,4.70
2019-05-11T08:15:09.020Z,4.70
2019-05-11T08:16:02.399Z,5.50
2019-05-11T08:17:02.399Z,4.10
2019-05-11T08:18:02.401Z,8.30
2019-05-11T08:19:02.409Z,4.60
2019-05-11T08:20:02.403Z,7.00
2019-05-11T08:21:02.405Z,7.10
2019-05-11T08:22:02.409Z,5.80
2019-05-11T08:23:02.409Z,5.00
2019-05-11T08:24:02.411Z,7.40
2019-05-11T08:25:02.412Z,6.70
2019-05-11T08:26:02.415Z,5.00
2019-05-11T08:27:02.417Z,8.90
2019-05-11T08:28:02.417Z,4.70
2019-05-11T08:29:02.419Z,6.00
2019-05-11T08:30:02.419Z,5.60
2019-05-11T08:31:02.423Z,9.20
2019-05-11T08:32:02.420Z,7.70
2019-05-11T08:33:02.422Z,5.70
2019-05-11T08:34:02.425Z,5.70
2019-05-11T08:35:02.424Z,10.10
2019-05-11T08:36:02.426Z,3.80
2019-05-11T08:37:02.427Z,7.20
2019-05-11T08:38:02.424Z,7.40
2019-05-11T08:39:02.424Z,7.70
2019-05-11T08:40:02.423Z,5.40
2019-05-11T08:41:02.425Z,5.30
2019-05-11T08:42:03.340Z,4.30
2019-05-11T08:43:02.426Z,4.90
2019-05-11T08:44:02.422Z,8.90
2019-05-11T08:45:16.101Z,6.60
2019-05-11T08:46:02.423Z,4.80
2019-05-11T08:47:02.423Z,7.80
2019-05-11T08:48:02.420Z,5.00
2019-05-11T08:49:02.421Z,7.00
2019-05-11T08:50:02.418Z,8.00
2019-05-11T08:51:02.418Z,8.50
2019-05-11T08:52:02.418Z,7.70
2019-05-11T08:53:02.417Z,4.70
2019-05-11T08:54:02.414Z,7.30
2019-05-11T08:55:02.414Z,5.50
2019-05-11T08:56:02.416Z,8.30
2019-05-11T08:57:02.412Z,7.90
2019-05-11T08:58:02.413Z,5.50
2019-05-11T08:59:02.411Z,10.20
2019-05-11T09:00:02.414Z,6.50
2019-05-11T09:01:02.409Z,5.80
2019-05-11T09:02:02.409Z,11.30
2019-05-11T09:03:02.409Z,8.90
2019-05-11T09:04:02.408Z,9.00
2019-05-11T09:05:02.409Z,12.80
2019-05-11T09:06:02.409Z,6.70
2019-05-11T09:07:02.407Z,7.70
2019-05-11T09:08:02.405Z,9.60
2019-05-11T09:09:02.405Z,7.10
2019-05-11T09:10:02.411Z,5.10
2019-05-11T09:11:02.407Z,8.20
2019-05-11T09:12:02.407Z,6.40
2019-05-11T09:13:02.406Z,9.70
2019-05-11T09:14:02.408Z,11.20
2019-05-11T09:15:02.408Z,8.00
2019-05-11T09:16:02.407Z,4.30
2019-05-11T09:17:02.406Z,6.90
2019-05-11T09:18:02.406Z,8.90
2019-05-11T09:19:02.407Z,7.10
2019-05-11T09:20:02.406Z,7.50
2019-05-11T09:21:02.406Z,9.10
2019-05-11T09:22:03.292Z,6.80
2019-05-11T09:23:02.407Z,10.90
2019-05-11T09:24:02.405Z,6.50
2019-05-11T09:25:02.407Z,9.80
2019-05-11T09:26:02.408Z,7.50
2019-05-11T09:27:02.407Z,6.40
2019-05-11T09:28:02.406Z,6.00
2019-05-11T09:29:02.406Z,5.40
2019-05-11T09:30:02.408Z,8.60
2019-05-11T09:31:02.408Z,6.50
2019-05-11T09:32:02.407Z,5.20
2019-05-11T09:33:02.407Z,9.10
2019-05-11T09:34:02.424Z,7.10
2019-05-11T09:35:02.408Z,3.60
2019-05-11T09:36:02.409Z,4.70
2019-05-11T09:37:02.410Z,5.30
2019-05-11T09:38:02.410Z,5.80
2019-05-11T09:39:02.412Z,3.20
2019-05-11T09:40:02.417Z,3.80
2019-05-11T09:41:02.412Z,6.40
2019-05-11T09:42:02.414Z,5.80
2019-05-11T09:43:02.414Z,6.90
2019-05-11T09:44:02.420Z,6.20
2019-05-11T09:45:02.415Z,6.60
2019-05-11T09:46:02.420Z,4.00
2019-05-11T09:47:02.725Z,6.20
2019-05-11T09:48:02.420Z,7.10
2019-05-11T09:49:02.423Z,6.60
2019-05-11T09:50:02.425Z,4.50
2019-05-11T09:51:02.430Z,5.50
2019-05-11T09:52:02.428Z,3.30
2019-05-11T09:53:02.433Z,2.70
2019-05-11T09:54:02.434Z,5.30
2019-05-11T09:55:02.437Z,3.60
2019-05-11T09:56:02.438Z,6.10
2019-05-11T09:57:02.443Z,5.80
2019-05-11T09:58:02.448Z,6.30
2019-05-11T09:59:02.453Z,6.00
2019-05-11T10:00:02.454Z,9.20
2019-05-11T10:01:02.461Z,4.00
2019-05-11T10:02:02.460Z,4.40
2019-05-11T10:03:02.464Z,6.80
2019-05-11T10:04:02.467Z,3.60
2019-05-11T10:05:02.471Z,4.50
2019-05-11T10:06:02.476Z,6.80
2019-05-11T10:07:02.480Z,5.10
2019-05-11T10:08:02.483Z,6.80
2019-05-11T10:09:02.489Z,7.90
2019-05-11T10:10:02.494Z,4.60
2019-05-11T10:11:02.500Z,4.10
2019-05-11T10:12:02.500Z,5.50
2019-05-11T10:13:02.507Z,4.00
2019-05-11T10:14:02.512Z,4.60
2019-05-11T10:15:02.519Z,4.00
2019-05-11T10:16:07.069Z,6.90
2019-05-11T10:17:02.730Z,6.60
2019-05-11T10:18:02.530Z,7.70
2019-05-11T10:19:02.538Z,5.60
2019-05-11T10:20:02.540Z,8.20
2019-05-11T10:21:02.543Z,3.20
2019-05-11T10:22:02.549Z,4.00
2019-05-11T10:23:02.552Z,4.60
2019-05-11T10:24:02.557Z,5.50
2019-05-11T10:25:02.562Z,7.20
2019-05-11T10:26:02.565Z,6.30
2019-05-11T10:27:02.570Z,7.20
2019-05-11T10:28:02.578Z,5.70
2019-05-11T10:29:02.577Z,9.90
2019-05-11T10:30:02.581Z,6.80
2019-05-11T10:31:02.585Z,6.90
2019-05-11T10:32:02.590Z,6.70
2019-05-11T10:33:02.594Z,4.20
2019-05-11T10:34:02.598Z,4.30
2019-05-11T10:35:02.603Z,5.00
2019-05-11T10:36:03.207Z,6.20
2019-05-11T10:37:02.612Z,12.80
2019-05-11T10:38:02.616Z,5.70
2019-05-11T10:39:02.644Z,4.00
2019-05-11T10:40:02.625Z,5.50
2019-05-11T10:41:02.629Z,3.90
2019-05-11T10:42:02.633Z,4.00
2019-05-11T10:43:03.002Z,4.90
2019-05-11T10:44:02.642Z,4.30
2019-05-11T10:45:02.873Z,5.60
2019-05-11T10:46:15.991Z,3.90
2019-05-11T10:47:02.656Z,8.10
2019-05-11T10:48:02.863Z,9.20
2019-05-11T10:49:03.027Z,6.00
2019-05-11T10:50:02.730Z,4.00
2019-05-11T10:51:02.681Z,5.80
2019-05-11T10:52:02.678Z,8.60
2019-05-11T10:53:02.686Z,6.10
2019-05-11T10:54:02.690Z,3.30
2019-05-11T10:55:02.813Z,5.00
2019-05-11T10:56:02.722Z,6.10
2019-05-11T10:57:02.905Z,6.10
2019-05-11T10:58:02.707Z,4.60
2019-05-11T10:59:02.711Z,5.90
2019-05-11T11:00:03.080Z,3.70
2019-05-11T11:01:02.718Z,4.50
2019-05-11T11:02:02.723Z,3.80
2019-05-11T11:03:02.728Z,3.90
2019-05-11T11:04:02.731Z,5.30
2019-05-11T11:05:02.735Z,7.50
2019-05-11T11:06:02.737Z,9.20
2019-05-11T11:07:02.745Z,4.40
2019-05-11T11:08:02.742Z,7.40
2019-05-11T11:09:02.748Z,5.60
2019-05-11T11:10:02.750Z,6.60
2019-05-11T11:11:02.754Z,5.10
2019-05-11T11:12:02.758Z,8.60
2019-05-11T11:13:02.758Z,3.00
2019-05-11T11:14:02.964Z,5.80
2019-05-11T11:15:02.764Z,4.50
2019-05-11T11:16:03.131Z,3.40
2019-05-11T11:17:02.770Z,3.70
2019-05-11T11:18:02.773Z,7.10
2019-05-11T11:19:02.775Z,3.90
2019-05-11T11:20:02.777Z,5.00
2019-05-11T11:21:46.105Z,4.30
2019-05-11T11:22:48.175Z,6.50
2019-05-11T11:23:48.002Z,10.30
2019-05-11T11:24:48.019Z,5.30
2019-05-11T11:26:48.413Z,4.80
2019-05-11T11:27:48.422Z,4.70
2019-05-11T11:28:47.813Z,5.40
2019-05-11T11:29:47.536Z,7.70
2019-05-11T11:30:47.983Z,10.40
2019-05-11T11:31:47.996Z,5.00
2019-05-11T11:32:48.097Z,4.60
2019-05-11T11:33:48.630Z,6.40
2019-05-11T11:34:48.353Z,3.10
2019-05-11T11:35:47.691Z,7.70
2019-05-11T11:36:48.065Z,3.90
2019-05-11T11:37:47.809Z,5.70
2019-05-11T11:38:47.885Z,8.10
2019-05-11T11:39:47.651Z,7.20
2019-05-11T11:40:48.209Z,5.60
2019-05-11T11:41:48.377Z,6.20
2019-05-11T11:42:47.821Z,7.40
2019-05-11T11:43:48.110Z,7.80
2019-05-11T11:44:48.230Z,3.90
2019-05-11T11:45:48.278Z,7.50
2019-05-11T11:46:54.247Z,4.70
2019-05-11T11:47:46.149Z,5.60
2019-05-11T11:48:48.550Z,3.30
2019-05-11T11:49:47.557Z,4.90
2019-05-11T11:50:48.005Z,5.50
2019-05-11T11:51:47.860Z,6.20
2019-05-11T11:52:47.681Z,6.00
2019-05-11T11:53:47.732Z,8.50
2019-05-11T11:54:47.858Z,6.40
2019-05-11T11:55:48.031Z,8.00
2019-05-11T11:56:48.339Z,5.60
2019-05-11T11:57:48.464Z,4.80
2019-05-11T11:58:48.529Z,3.80
2019-05-11T11:59:48.136Z,3.20
2019-05-11T12:00:48.063Z,6.40
2019-05-11T12:01:48.515Z,6.00
2019-05-11T12:02:48.560Z,4.90
2019-05-11T12:03:48.470Z,6.80
2019-05-11T12:04:46.161Z,4.90
2019-05-11T12:05:47.763Z,8.90
2019-05-11T12:06:46.162Z,3.80
2019-05-11T12:07:46.160Z,6.00
2019-05-11T12:08:46.163Z,4.80
2019-05-11T12:09:48.319Z,6.50
2019-05-11T12:10:48.296Z,8.50
2019-05-11T12:11:48.412Z,5.50
2019-05-11T12:12:47.555Z,4.30
2019-05-11T12:13:47.532Z,8.40
2019-05-11T12:14:47.937Z,5.10
2019-05-11T12:15:48.018Z,6.30
2019-05-11T12:16:47.935Z,5.70
2019-05-11T12:17:48.094Z,6.30
2019-05-11T12:18:48.395Z,5.00
2019-05-11T12:19:47.806Z,5.00
2019-05-11T12:20:47.896Z,9.50
2019-05-11T12:21:48.225Z,5.10
2019-05-11T12:22:47.654Z,4.50
2019-05-11T12:23:48.298Z,4.20
2019-05-11T12:24:48.227Z,3.20
2019-05-11T12:25:48.453Z,6.90
2019-05-11T12:26:48.056Z,6.20
2019-05-11T12:27:48.724Z,6.50
2019-05-11T12:28:48.661Z,3.50
2019-05-11T12:29:47.719Z,4.30
2019-05-11T12:30:48.148Z,4.20
2019-05-11T12:31:48.319Z,7.00
2019-05-11T12:32:48.522Z,7.60
2019-05-11T12:33:48.229Z,6.40
2019-05-11T12:34:48.076Z,7.00
2019-05-11T12:35:48.019Z,4.40
2019-05-11T12:36:47.931Z,7.50
2019-05-11T12:37:48.272Z,4.60
2019-05-11T12:38:48.561Z,9.00
2019-05-11T12:39:47.879Z,5.90
2019-05-11T12:40:47.726Z,15.90
2019-05-11T12:41:47.957Z,4.50
2019-05-11T12:42:48.665Z,5.80
2019-05-11T12:43:46.162Z,10.80
2019-05-11T12:44:48.027Z,3.80
2019-05-11T12:45:48.088Z,3.60
2019-05-11T12:46:48.584Z,9.20
2019-05-11T12:47:47.932Z,11.40
2019-05-11T12:48:48.247Z,7.90
2019-05-11T12:49:48.185Z,5.00
2019-05-11T12:50:48.262Z,11.10
2019-05-11T12:51:46.163Z,5.00
2019-05-11T12:52:47.678Z,8.50
2019-05-11T12:53:47.618Z,6.30
2019-05-11T12:54:47.918Z,6.90
2019-05-11T12:55:48.193Z,6.00
2019-05-11T12:56:46.165Z,4.40
2019-05-11T12:57:47.836Z,6.30
2019-05-11T12:58:46.166Z,5.30
2019-05-11T12:59:48.147Z,7.70
2019-05-11T13:00:47.955Z,6.50
2019-05-11T13:01:48.385Z,6.30
2019-05-11T13:02:48.172Z,5.30
2019-05-11T13:03:46.169Z,6.00
2019-05-11T13:04:47.743Z,9.80
2019-05-11T13:05:48.245Z,6.30
2019-05-11T13:06:47.903Z,4.50
2019-05-11T13:07:47.894Z,8.20
2019-05-11T13:08:48.042Z,7.10
2019-05-11T13:09:48.269Z,6.10
2019-05-11T13:10:47.858Z,4.00
2019-05-11T13:11:48.009Z,9.40
2019-05-11T13:12:46.174Z,3.90
2019-05-11T13:13:48.147Z,6.80
2019-05-11T13:14:48.631Z,5.80
2019-05-11T13:15:47.818Z,7.90
2019-05-11T13:16:48.130Z,3.50
2019-05-11T13:17:46.178Z,10.70
2019-05-11T13:18:48.507Z,7.50
2019-05-11T13:19:48.042Z,5.40
2019-05-11T13:20:48.058Z,4.90
2019-05-11T13:21:48.471Z,5.10
2019-05-11T13:22:48.661Z,5.30
2019-05-11T13:23:46.183Z,5.30